sensor_id;sensor_type;location;lat;lon;timestamp;pressure;altitude;pressure_sealevel;temperature;humidity
57763;BME280;43592;42.524;12.052;2023-04-26T00:01:07;96268.16;;;8.05;100.00
57763;BME280;43592;42.524;12.052;2023-04-26T00:03:32;96268.72;;;7.99;100.00
57763;BME280;43592;42.524;12.052;2023-04-26T00:05:58;96272.72;;;7.93;100.00
57763;BME280;43592;42.524;12.052;2023-04-26T00:08:28;96268.25;;;7.84;100.00
57763;BME280;43592;42.524;12.052;2023-04-26T00:10:53;96264.22;;;7.78;100.00
57763;BME280;43592;42.524;12.052;2023-04-26T00:13:19;96266.47;;;7.76;100.00
57763;BME280;43592;42.524;12.052;2023-04-26T00:15:44;96265.69;;;7.76;100.00
57763;BME280;43592;42.524;12.052;2023-04-26T00:18:10;96267.53;;;7.75;100.00
57763;BME280;43592;42.524;12.052;2023-04-26T00:20:36;96268.97;;;7.73;100.00
57763;BME280;43592;42.524;12.052;2023-04-26T00:23:02;96262.66;;;7.65;100.00
57763;BME280;43592;42.524;12.052;2023-04-26T00:25:28;96268.84;;;7.57;100.00
57763;BME280;43592;42.524;12.052;2023-04-26T00:27:54;96268.47;;;7.46;100.00
57763;BME280;43592;42.524;12.052;2023-04-26T00:30:20;96265.09;;;7.37;100.00
57763;BME280;43592;42.524;12.052;2023-04-26T00:32:46;96272.16;;;7.33;100.00
57763;BME280;43592;42.524;12.052;2023-04-26T00:35:12;96266.06;;;7.32;100.00
57763;BME280;43592;42.524;12.052;2023-04-26T00:37:37;96264.34;;;7.36;100.00
57763;BME280;43592;42.524;12.052;2023-04-26T00:40:03;96263.22;;;7.37;100.00
57763;BME280;43592;42.524;12.052;2023-04-26T00:42:30;96271.00;;;7.42;100.00
57763;BME280;43592;42.524;12.052;2023-04-26T00:44:55;96272.09;;;7.41;100.00
57763;BME280;43592;42.524;12.052;2023-04-26T00:47:22;96272.44;;;7.40;100.00
57763;BME280;43592;42.524;12.052;2023-04-26T00:49:49;96274.63;;;7.38;100.00
57763;BME280;43592;42.524;12.052;2023-04-26T00:52:14;96268.09;;;7.35;100.00
57763;BME280;43592;42.524;12.052;2023-04-26T00:54:40;96272.63;;;7.35;100.00
57763;BME280;43592;42.524;12.052;2023-04-26T00:57:06;96277.19;;;7.34;100.00
57763;BME280;43592;42.524;12.052;2023-04-26T00:59:34;96276.06;;;7.35;100.00
57763;BME280;43592;42.524;12.052;2023-04-26T01:02:03;96277.31;;;7.38;100.00
57763;BME280;43592;42.524;12.052;2023-04-26T01:04:29;96276.66;;;7.41;100.00
57763;BME280;43592;42.524;12.052;2023-04-26T01:06:55;96272.25;;;7.45;100.00
57763;BME280;43592;42.524;12.052;2023-04-26T01:09:20;96281.47;;;7.48;100.00
57763;BME280;43592;42.524;12.052;2023-04-26T01:11:47;96271.25;;;7.50;100.00
57763;BME280;43592;42.524;12.052;2023-04-26T01:14:13;96275.91;;;7.53;100.00
57763;BME280;43592;42.524;12.052;2023-04-26T01:16:39;96275.13;;;7.52;100.00
57763;BME280;43592;42.524;12.052;2023-04-26T01:19:10;96274.81;;;7.54;100.00
57763;BME280;43592;42.524;12.052;2023-04-26T01:21:37;96271.03;;;7.55;100.00
57763;BME280;43592;42.524;12.052;2023-04-26T01:24:03;96279.81;;;7.55;100.00
57763;BME280;43592;42.524;12.052;2023-04-26T01:26:29;96269.50;;;7.54;100.00
57763;BME280;43592;42.524;12.052;2023-04-26T01:28:54;96271.25;;;7.50;100.00
57763;BME280;43592;42.524;12.052;2023-04-26T01:31:20;96272.66;;;7.47;100.00
57763;BME280;43592;42.524;12.052;2023-04-26T01:33:45;96273.31;;;7.44;100.00
57763;BME280;43592;42.524;12.052;2023-04-26T01:36:11;96275.56;;;7.42;100.00
57763;BME280;43592;42.524;12.052;2023-04-26T01:38:36;96276.53;;;7.37;100.00
57763;BME280;43592;42.524;12.052;2023-04-26T01:41:02;96276.06;;;7.35;100.00
57763;BME280;43592;42.524;12.052;2023-04-26T01:43:27;96277.84;;;7.31;100.00
57763;BME280;43592;42.524;12.052;2023-04-26T01:45:53;96284.13;;;7.27;100.00
57763;BME280;43592;42.524;12.052;2023-04-26T01:48:18;96287.78;;;7.22;100.00
57763;BME280;43592;42.524;12.052;2023-04-26T01:50:44;96279.53;;;7.15;100.00
57763;BME280;43592;42.524;12.052;2023-04-26T01:53:10;96276.75;;;7.11;100.00
57763;BME280;43592;42.524;12.052;2023-04-26T01:55:35;96279.28;;;7.08;100.00
57763;BME280;43592;42.524;12.052;2023-04-26T01:58:01;96273.69;;;7.01;100.00
57763;BME280;43592;42.524;12.052;2023-04-26T02:00:27;96272.97;;;6.91;100.00
57763;BME280;43592;42.524;12.052;2023-04-26T02:02:53;96274.47;;;6.80;100.00
57763;BME280;43592;42.524;12.052;2023-04-26T02:05:19;96271.69;;;6.68;100.00
57763;BME280;43592;42.524;12.052;2023-04-26T02:07:44;96268.00;;;6.60;100.00
57763;BME280;43592;42.524;12.052;2023-04-26T02:10:10;96268.31;;;6.59;100.00
57763;BME280;43592;42.524;12.052;2023-04-26T02:12:35;96274.56;;;6.63;100.00
57763;BME280;43592;42.524;12.052;2023-04-26T02:15:01;96275.34;;;6.63;100.00
57763;BME280;43592;42.524;12.052;2023-04-26T02:17:26;96274.09;;;6.61;100.00
57763;BME280;43592;42.524;12.052;2023-04-26T02:19:53;96275.53;;;6.58;100.00
57763;BME280;43592;42.524;12.052;2023-04-26T02:22:19;96277.28;;;6.54;100.00
57763;BME280;43592;42.524;12.052;2023-04-26T02:24:48;96269.91;;;6.51;100.00
57763;BME280;43592;42.524;12.052;2023-04-26T02:27:14;96269.78;;;6.47;100.00
57763;BME280;43592;42.524;12.052;2023-04-26T02:29:39;96270.91;;;6.46;100.00
57763;BME280;43592;42.524;12.052;2023-04-26T02:32:05;96270.78;;;6.43;100.00
57763;BME280;43592;42.524;12.052;2023-04-26T02:34:30;96266.41;;;6.38;100.00
57763;BME280;43592;42.524;12.052;2023-04-26T02:36:56;96269.69;;;6.35;100.00
57763;BME280;43592;42.524;12.052;2023-04-26T02:39:21;96278.78;;;6.34;100.00
57763;BME280;43592;42.524;12.052;2023-04-26T02:41:47;96269.69;;;6.35;100.00
57763;BME280;43592;42.524;12.052;2023-04-26T02:44:13;96272.81;;;6.37;100.00
57763;BME280;43592;42.524;12.052;2023-04-26T02:46:39;96275.16;;;6.39;100.00
57763;BME280;43592;42.524;12.052;2023-04-26T02:49:04;96274.84;;;6.40;100.00
57763;BME280;43592;42.524;12.052;2023-04-26T02:51:30;96275.50;;;6.37;100.00
57763;BME280;43592;42.524;12.052;2023-04-26T02:53:57;96275.03;;;6.35;100.00
57763;BME280;43592;42.524;12.052;2023-04-26T02:56:23;96281.44;;;6.34;100.00
57763;BME280;43592;42.524;12.052;2023-04-26T02:58:48;96279.88;;;6.33;100.00
57763;BME280;43592;42.524;12.052;2023-04-26T03:01:14;96290.38;;;6.29;100.00
57763;BME280;43592;42.524;12.052;2023-04-26T03:03:40;96288.34;;;6.26;100.00
57763;BME280;43592;42.524;12.052;2023-04-26T03:06:06;96286.63;;;6.22;100.00
57763;BME280;43592;42.524;12.052;2023-04-26T03:08:32;96297.44;;;6.17;100.00
57763;BME280;43592;42.524;12.052;2023-04-26T03:10:59;96292.63;;;6.10;100.00
57763;BME280;43592;42.524;12.052;2023-04-26T03:13:25;96302.16;;;6.02;100.00
57763;BME280;43592;42.524;12.052;2023-04-26T03:15:50;96300.00;;;5.96;100.00
57763;BME280;43592;42.524;12.052;2023-04-26T03:18:17;96302.50;;;5.92;100.00
57763;BME280;43592;42.524;12.052;2023-04-26T03:20:44;96306.22;;;5.91;100.00
57763;BME280;43592;42.524;12.052;2023-04-26T03:23:10;96310.47;;;5.92;100.00
57763;BME280;43592;42.524;12.052;2023-04-26T03:25:35;96309.69;;;6.00;100.00
57763;BME280;43592;42.524;12.052;2023-04-26T03:28:01;96300.75;;;6.05;100.00
57763;BME280;43592;42.524;12.052;2023-04-26T03:30:27;96301.06;;;6.12;100.00
57763;BME280;43592;42.524;12.052;2023-04-26T03:32:52;96311.97;;;6.19;100.00
57763;BME280;43592;42.524;12.052;2023-04-26T03:35:18;96307.59;;;6.23;100.00
57763;BME280;43592;42.524;12.052;2023-04-26T03:37:44;96314.59;;;6.28;100.00
57763;BME280;43592;42.524;12.052;2023-04-26T03:40:09;96302.09;;;6.28;100.00
57763;BME280;43592;42.524;12.052;2023-04-26T03:42:35;96317.72;;;6.30;100.00
57763;BME280;43592;42.524;12.052;2023-04-26T03:45:02;96318.19;;;6.32;100.00
57763;BME280;43592;42.524;12.052;2023-04-26T03:47:28;96320.97;;;6.36;100.00
57763;BME280;43592;42.524;12.052;2023-04-26T03:49:54;96318.66;;;6.34;100.00
57763;BME280;43592;42.524;12.052;2023-04-26T03:52:19;96319.88;;;6.37;100.00
57763;BME280;43592;42.524;12.052;2023-04-26T03:54:45;96328.66;;;6.37;100.00
57763;BME280;43592;42.524;12.052;2023-04-26T03:57:10;96326.00;;;6.37;100.00
57763;BME280;43592;42.524;12.052;2023-04-26T03:59:36;96328.94;;;6.36;100.00
57763;BME280;43592;42.524;12.052;2023-04-26T04:02:02;96330.19;;;6.38;100.00
57763;BME280;43592;42.524;12.052;2023-04-26T04:04:27;96323.00;;;6.39;100.00
57763;BME280;43592;42.524;12.052;2023-04-26T04:06:53;96323.59;;;6.44;100.00
57763;BME280;43592;42.524;12.052;2023-04-26T04:09:18;96324.19;;;6.50;100.00
57763;BME280;43592;42.524;12.052;2023-04-26T04:11:44;96332.47;;;6.57;100.00
57763;BME280;43592;42.524;12.052;2023-04-26T04:14:09;96331.19;;;6.63;100.00
57763;BME280;43592;42.524;12.052;2023-04-26T04:16:35;96332.25;;;6.71;100.00
57763;BME280;43592;42.524;12.052;2023-04-26T04:19:00;96330.63;;;6.79;99.96
57763;BME280;43592;42.524;12.052;2023-04-26T04:21:26;96330.44;;;6.84;98.48
57763;BME280;43592;42.524;12.052;2023-04-26T04:23:52;96338.50;;;6.96;96.74
57763;BME280;43592;42.524;12.052;2023-04-26T04:26:17;96330.47;;;7.05;96.08
57763;BME280;43592;42.524;12.052;2023-04-26T04:28:43;96330.09;;;7.15;94.95
57763;BME280;43592;42.524;12.052;2023-04-26T04:31:09;96336.78;;;7.21;94.11
57763;BME280;43592;42.524;12.052;2023-04-26T04:33:35;96330.03;;;7.24;94.18
57763;BME280;43592;42.524;12.052;2023-04-26T04:36:01;96344.25;;;7.28;93.33
57763;BME280;43592;42.524;12.052;2023-04-26T04:38:26;96343.72;;;7.34;92.30
57763;BME280;43592;42.524;12.052;2023-04-26T04:40:53;96349.94;;;7.38;92.09
57763;BME280;43592;42.524;12.052;2023-04-26T04:43:18;96349.31;;;7.41;92.23
57763;BME280;43592;42.524;12.052;2023-04-26T04:45:45;96352.75;;;7.42;91.69
57763;BME280;43592;42.524;12.052;2023-04-26T04:48:12;96353.19;;;7.44;92.16
57763;BME280;43592;42.524;12.052;2023-04-26T04:50:37;96355.56;;;7.46;92.11
57763;BME280;43592;42.524;12.052;2023-04-26T04:53:03;96361.34;;;7.48;91.91
57763;BME280;43592;42.524;12.052;2023-04-26T04:55:29;96372.41;;;7.50;91.01
57763;BME280;43592;42.524;12.052;2023-04-26T04:57:54;96375.22;;;7.53;90.89
57763;BME280;43592;42.524;12.052;2023-04-26T05:00:20;96384.47;;;7.56;91.37
57763;BME280;43592;42.524;12.052;2023-04-26T05:02:46;96384.59;;;7.59;89.65
57763;BME280;43592;42.524;12.052;2023-04-26T05:05:11;96387.38;;;7.63;89.39
57763;BME280;43592;42.524;12.052;2023-04-26T05:07:39;96388.72;;;7.69;88.95
57763;BME280;43592;42.524;12.052;2023-04-26T05:10:04;96390.41;;;7.74;89.14
57763;BME280;43592;42.524;12.052;2023-04-26T05:12:30;96389.00;;;7.76;89.14
57763;BME280;43592;42.524;12.052;2023-04-26T05:14:56;96379.56;;;7.79;88.39
57763;BME280;43592;42.524;12.052;2023-04-26T05:17:21;96386.72;;;7.87;87.36
57763;BME280;43592;42.524;12.052;2023-04-26T05:19:46;96389.94;;;7.93;87.36
57763;BME280;43592;42.524;12.052;2023-04-26T05:22:12;96396.63;;;7.99;86.76
57763;BME280;43592;42.524;12.052;2023-04-26T05:24:45;96386.56;;;8.04;86.71
57763;BME280;43592;42.524;12.052;2023-04-26T05:27:11;96398.22;;;8.12;85.83
57763;BME280;43592;42.524;12.052;2023-04-26T05:29:36;96403.81;;;8.19;85.15
57763;BME280;43592;42.524;12.052;2023-04-26T05:32:02;96399.81;;;8.25;85.71
57763;BME280;43592;42.524;12.052;2023-04-26T05:34:28;96401.50;;;8.30;84.71
57763;BME280;43592;42.524;12.052;2023-04-26T05:36:53;96404.41;;;8.37;84.86
57763;BME280;43592;42.524;12.052;2023-04-26T05:39:18;96401.56;;;8.42;85.77
57763;BME280;43592;42.524;12.052;2023-04-26T05:41:45;96408.22;;;8.48;85.04
57763;BME280;43592;42.524;12.052;2023-04-26T05:44:11;96408.34;;;8.52;85.24
57763;BME280;43592;42.524;12.052;2023-04-26T05:46:37;96410.81;;;8.57;84.55
57763;BME280;43592;42.524;12.052;2023-04-26T05:49:02;96414.16;;;8.66;83.23
57763;BME280;43592;42.524;12.052;2023-04-26T05:51:28;96417.81;;;8.74;83.91
57763;BME280;43592;42.524;12.052;2023-04-26T05:53:53;96424.63;;;8.84;83.87
57763;BME280;43592;42.524;12.052;2023-04-26T05:56:18;96425.63;;;8.91;83.98
57763;BME280;43592;42.524;12.052;2023-04-26T05:58:45;96420.97;;;9.01;81.40
57763;BME280;43592;42.524;12.052;2023-04-26T06:01:10;96423.72;;;9.16;81.44
57763;BME280;43592;42.524;12.052;2023-04-26T06:03:36;96427.75;;;9.35;81.02
57763;BME280;43592;42.524;12.052;2023-04-26T06:06:02;96429.22;;;9.73;80.00
57763;BME280;43592;42.524;12.052;2023-04-26T06:08:27;96438.41;;;10.56;81.65
57763;BME280;43592;42.524;12.052;2023-04-26T06:10:53;96432.59;;;11.68;77.59
57763;BME280;43592;42.524;12.052;2023-04-26T06:13:18;96436.22;;;12.77;72.16
57763;BME280;43592;42.524;12.052;2023-04-26T06:15:44;96434.72;;;13.79;69.47
57763;BME280;43592;42.524;12.052;2023-04-26T06:18:09;96425.41;;;14.74;65.85
57763;BME280;43592;42.524;12.052;2023-04-26T06:20:35;96437.50;;;15.42;64.17
57763;BME280;43592;42.524;12.052;2023-04-26T06:23:00;96437.50;;;16.12;64.02
57763;BME280;43592;42.524;12.052;2023-04-26T06:25:26;96432.66;;;16.75;61.08
57763;BME280;43592;42.524;12.052;2023-04-26T06:27:51;96444.28;;;17.29;62.03
57763;BME280;43592;42.524;12.052;2023-04-26T06:30:18;96445.81;;;17.62;57.71
57763;BME280;43592;42.524;12.052;2023-04-26T06:32:43;96441.91;;;17.78;57.76
57763;BME280;43592;42.524;12.052;2023-04-26T06:35:09;96445.72;;;18.12;59.79
57763;BME280;43592;42.524;12.052;2023-04-26T06:37:35;96448.59;;;18.57;58.78
57763;BME280;43592;42.524;12.052;2023-04-26T06:40:01;96446.06;;;18.95;55.26
57763;BME280;43592;42.524;12.052;2023-04-26T06:42:26;96449.66;;;19.34;57.13
57763;BME280;43592;42.524;12.052;2023-04-26T06:44:52;96456.78;;;19.58;54.96
57763;BME280;43592;42.524;12.052;2023-04-26T06:47:17;96459.06;;;19.63;55.14
57763;BME280;43592;42.524;12.052;2023-04-26T06:49:43;96459.41;;;19.69;51.62
57763;BME280;43592;42.524;12.052;2023-04-26T06:52:08;96455.28;;;19.50;51.07
57763;BME280;43592;42.524;12.052;2023-04-26T06:54:34;96455.41;;;19.39;52.09
57763;BME280;43592;42.524;12.052;2023-04-26T06:56:59;96462.72;;;19.46;55.28
57763;BME280;43592;42.524;12.052;2023-04-26T06:59:25;96464.38;;;19.33;52.04
57763;BME280;43592;42.524;12.052;2023-04-26T07:01:51;96469.56;;;19.13;53.73
57763;BME280;43592;42.524;12.052;2023-04-26T07:04:16;96470.41;;;19.06;55.56
57763;BME280;43592;42.524;12.052;2023-04-26T07:06:43;96467.97;;;19.19;52.00
57763;BME280;43592;42.524;12.052;2023-04-26T07:09:08;96469.94;;;19.15;52.58
57763;BME280;43592;42.524;12.052;2023-04-26T07:11:34;96468.44;;;19.06;53.77
57763;BME280;43592;42.524;12.052;2023-04-26T07:13:59;96479.59;;;19.16;53.57
57763;BME280;43592;42.524;12.052;2023-04-26T07:16:26;96480.72;;;19.25;53.85
57763;BME280;43592;42.524;12.052;2023-04-26T07:18:51;96485.31;;;19.32;52.87
57763;BME280;43592;42.524;12.052;2023-04-26T07:21:17;96489.31;;;19.65;55.10
57763;BME280;43592;42.524;12.052;2023-04-26T07:23:42;96483.31;;;19.85;51.81
57763;BME280;43592;42.524;12.052;2023-04-26T07:26:11;96484.53;;;19.80;51.72
57763;BME280;43592;42.524;12.052;2023-04-26T07:28:36;96481.19;;;19.65;49.13
57763;BME280;43592;42.524;12.052;2023-04-26T07:31:02;96490.56;;;19.54;49.90
57763;BME280;43592;42.524;12.052;2023-04-26T07:33:27;96486.19;;;19.67;52.39
57763;BME280;43592;42.524;12.052;2023-04-26T07:35:53;96499.09;;;19.97;52.19
57763;BME280;43592;42.524;12.052;2023-04-26T07:38:22;96499.75;;;20.08;50.13
57763;BME280;43592;42.524;12.052;2023-04-26T07:40:48;96505.72;;;20.30;46.58
57763;BME280;43592;42.524;12.052;2023-04-26T07:43:13;96500.94;;;20.41;49.54
57763;BME280;43592;42.524;12.052;2023-04-26T07:45:40;96508.00;;;20.70;49.65
57763;BME280;43592;42.524;12.052;2023-04-26T07:48:05;96505.94;;;21.04;47.39
57763;BME280;43592;42.524;12.052;2023-04-26T07:50:31;96513.91;;;21.19;48.94
57763;BME280;43592;42.524;12.052;2023-04-26T07:52:56;96509.56;;;20.98;43.98
57763;BME280;43592;42.524;12.052;2023-04-26T07:55:22;96515.84;;;20.91;45.97
57763;BME280;43592;42.524;12.052;2023-04-26T07:57:47;96506.97;;;20.87;44.63
57763;BME280;43592;42.524;12.052;2023-04-26T08:00:13;96515.66;;;21.05;44.90
57763;BME280;43592;42.524;12.052;2023-04-26T08:02:40;96520.78;;;21.00;46.06
57763;BME280;43592;42.524;12.052;2023-04-26T08:05:05;96529.75;;;20.97;42.77
57763;BME280;43592;42.524;12.052;2023-04-26T08:07:31;96526.97;;;21.00;43.04
57763;BME280;43592;42.524;12.052;2023-04-26T08:09:57;96520.16;;;21.16;44.58
57763;BME280;43592;42.524;12.052;2023-04-26T08:12:22;96526.16;;;21.30;43.74
57763;BME280;43592;42.524;12.052;2023-04-26T08:14:48;96533.03;;;21.12;43.31
57763;BME280;43592;42.524;12.052;2023-04-26T08:17:14;96532.91;;;20.95;44.42
57763;BME280;43592;42.524;12.052;2023-04-26T08:19:40;96527.81;;;21.24;43.21
57763;BME280;43592;42.524;12.052;2023-04-26T08:22:05;96530.94;;;21.73;41.56
57763;BME280;43592;42.524;12.052;2023-04-26T08:24:31;96525.28;;;22.31;41.32
57763;BME280;43592;42.524;12.052;2023-04-26T08:26:57;96539.19;;;22.57;40.20
57763;BME280;43592;42.524;12.052;2023-04-26T08:29:25;96539.66;;;22.72;40.10
57763;BME280;43592;42.524;12.052;2023-04-26T08:31:51;96532.97;;;22.93;40.29
57763;BME280;43592;42.524;12.052;2023-04-26T08:34:17;96545.94;;;22.89;38.87
57763;BME280;43592;42.524;12.052;2023-04-26T08:36:42;96546.16;;;22.98;41.18
57763;BME280;43592;42.524;12.052;2023-04-26T08:39:08;96546.19;;;23.14;39.51
57763;BME280;43592;42.524;12.052;2023-04-26T08:41:35;96549.28;;;23.16;36.86
57763;BME280;43592;42.524;12.052;2023-04-26T08:44:01;96541.94;;;23.29;38.66
57763;BME280;43592;42.524;12.052;2023-04-26T08:46:39;96541.34;;;23.38;40.03
57763;BME280;43592;42.524;12.052;2023-04-26T08:49:12;96540.69;;;23.50;38.36
57763;BME280;43592;42.524;12.052;2023-04-26T08:51:41;96548.69;;;23.58;37.47
57763;BME280;43592;42.524;12.052;2023-04-26T08:54:07;96548.56;;;23.12;40.05
57763;BME280;43592;42.524;12.052;2023-04-26T08:56:34;96557.22;;;22.91;39.01
57763;BME280;43592;42.524;12.052;2023-04-26T08:59:00;96552.31;;;22.82;38.73
57763;BME280;43592;42.524;12.052;2023-04-26T09:01:25;96553.09;;;23.02;38.52
57763;BME280;43592;42.524;12.052;2023-04-26T09:03:53;96562.06;;;23.19;39.21
57763;BME280;43592;42.524;12.052;2023-04-26T09:06:19;96563.00;;;23.29;36.17
57763;BME280;43592;42.524;12.052;2023-04-26T09:08:45;96559.16;;;23.26;37.26
57763;BME280;43592;42.524;12.052;2023-04-26T09:11:11;96562.47;;;23.18;39.43
57763;BME280;43592;42.524;12.052;2023-04-26T09:13:37;96561.84;;;23.30;37.23
57763;BME280;43592;42.524;12.052;2023-04-26T09:16:03;96558.41;;;23.26;37.02
57763;BME280;43592;42.524;12.052;2023-04-26T09:18:28;96572.09;;;22.86;38.04
57763;BME280;43592;42.524;12.052;2023-04-26T09:21:05;96575.19;;;22.68;38.12
57763;BME280;43592;42.524;12.052;2023-04-26T09:23:31;96567.28;;;22.34;38.05
57763;BME280;43592;42.524;12.052;2023-04-26T09:26:16;96567.78;;;22.05;41.83
57763;BME280;43592;42.524;12.052;2023-04-26T09:28:42;96570.03;;;21.87;39.63
57763;BME280;43592;42.524;12.052;2023-04-26T09:31:07;96569.88;;;21.74;41.50
57763;BME280;43592;42.524;12.052;2023-04-26T09:33:33;96564.81;;;21.72;37.50
57763;BME280;43592;42.524;12.052;2023-04-26T09:36:09;96564.81;;;21.72;38.80
57763;BME280;43592;42.524;12.052;2023-04-26T09:38:40;96563.47;;;21.84;38.92
57763;BME280;43592;42.524;12.052;2023-04-26T09:41:06;96565.72;;;21.89;39.20
57763;BME280;43592;42.524;12.052;2023-04-26T09:43:35;96556.00;;;21.88;37.38
57763;BME280;43592;42.524;12.052;2023-04-26T09:46:01;96561.16;;;21.83;37.40
57763;BME280;43592;42.524;12.052;2023-04-26T09:48:27;96568.25;;;22.00;38.96
57763;BME280;43592;42.524;12.052;2023-04-26T09:50:58;96565.78;;;21.86;35.92
57763;BME280;43592;42.524;12.052;2023-04-26T09:55:50;96559.78;;;21.94;39.39
57763;BME280;43592;42.524;12.052;2023-04-26T09:58:16;96561.75;;;21.94;37.83
57763;BME280;43592;42.524;12.052;2023-04-26T10:00:41;96561.00;;;22.13;37.39
57763;BME280;43592;42.524;12.052;2023-04-26T10:03:07;96559.66;;;22.02;37.45
57763;BME280;43592;42.524;12.052;2023-04-26T10:05:34;96558.47;;;22.03;37.11
57763;BME280;43592;42.524;12.052;2023-04-26T10:08:00;96559.19;;;22.07;36.46
57763;BME280;43592;42.524;12.052;2023-04-26T10:10:28;96563.38;;;22.11;38.11
57763;BME280;43592;42.524;12.052;2023-04-26T10:12:54;96566.13;;;22.11;36.98
57763;BME280;43592;42.524;12.052;2023-04-26T10:15:20;96558.03;;;22.28;39.16
57763;BME280;43592;42.524;12.052;2023-04-26T10:17:45;96570.13;;;22.27;36.71
57763;BME280;43592;42.524;12.052;2023-04-26T10:20:11;96557.25;;;22.51;41.69
57763;BME280;43592;42.524;12.052;2023-04-26T10:22:44;96562.25;;;22.72;37.09
57763;BME280;43592;42.524;12.052;2023-04-26T10:25:10;96559.59;;;22.89;34.92
57763;BME280;43592;42.524;12.052;2023-04-26T10:30:07;96556.09;;;22.88;39.53
57763;BME280;43592;42.524;12.052;2023-04-26T10:33:09;96552.50;;;22.91;37.64
57763;BME280;43592;42.524;12.052;2023-04-26T10:35:19;96557.34;;;23.03;35.56
57763;BME280;43592;42.524;12.052;2023-04-26T10:40:27;96554.28;;;23.18;35.65
57763;BME280;43592;42.524;12.052;2023-04-26T10:45:34;96559.97;;;23.27;32.83
57763;BME280;43592;42.524;12.052;2023-04-26T10:48:19;96554.38;;;23.14;34.07
57763;BME280;43592;42.524;12.052;2023-04-26T10:53:28;96541.53;;;23.47;33.21
57763;BME280;43592;42.524;12.052;2023-04-26T10:55:54;96554.41;;;23.63;35.53
57763;BME280;43592;42.524;12.052;2023-04-26T10:58:30;96549.91;;;23.57;30.39
57763;BME280;43592;42.524;12.052;2023-04-26T11:01:15;96549.41;;;23.62;32.57
57763;BME280;43592;42.524;12.052;2023-04-26T11:03:42;96546.69;;;23.78;32.52
57763;BME280;43592;42.524;12.052;2023-04-26T11:06:08;96552.66;;;23.89;37.05
57763;BME280;43592;42.524;12.052;2023-04-26T11:08:34;96543.63;;;24.22;37.51
57763;BME280;43592;42.524;12.052;2023-04-26T11:13:26;96540.72;;;24.41;34.37
57763;BME280;43592;42.524;12.052;2023-04-26T11:15:53;96536.94;;;24.23;37.62
57763;BME280;43592;42.524;12.052;2023-04-26T11:18:19;96540.00;;;24.25;36.27
57763;BME280;43592;42.524;12.052;2023-04-26T11:20:45;96550.06;;;24.15;37.25
57763;BME280;43592;42.524;12.052;2023-04-26T11:23:10;96539.88;;;24.15;39.07
57763;BME280;43592;42.524;12.052;2023-04-26T11:25:37;96538.09;;;24.09;32.97
57763;BME280;43592;42.524;12.052;2023-04-26T11:28:03;96532.19;;;24.10;39.89
57763;BME280;43592;42.524;12.052;2023-04-26T11:30:30;96527.63;;;24.20;39.60
57763;BME280;43592;42.524;12.052;2023-04-26T11:32:59;96530.28;;;24.24;36.88
57763;BME280;43592;42.524;12.052;2023-04-26T11:35:25;96521.47;;;24.32;40.17
57763;BME280;43592;42.524;12.052;2023-04-26T11:37:56;96527.94;;;24.38;39.17
57763;BME280;43592;42.524;12.052;2023-04-26T11:40:22;96524.31;;;24.41;43.26
57763;BME280;43592;42.524;12.052;2023-04-26T11:42:47;96522.63;;;24.18;33.63
57763;BME280;43592;42.524;12.052;2023-04-26T11:45:16;96527.31;;;24.18;36.18
57763;BME280;43592;42.524;12.052;2023-04-26T11:47:42;96524.13;;;24.19;38.82
57763;BME280;43592;42.524;12.052;2023-04-26T11:50:08;96530.63;;;23.80;37.49
57763;BME280;43592;42.524;12.052;2023-04-26T11:52:34;96524.28;;;23.83;42.64
57763;BME280;43592;42.524;12.052;2023-04-26T11:55:03;96528.66;;;23.81;36.31
57763;BME280;43592;42.524;12.052;2023-04-26T11:57:30;96520.38;;;23.68;34.45
57763;BME280;43592;42.524;12.052;2023-04-26T12:02:36;96534.19;;;23.61;36.18
57763;BME280;43592;42.524;12.052;2023-04-26T12:05:02;96532.00;;;23.56;34.58
57763;BME280;43592;42.524;12.052;2023-04-26T12:07:33;96531.91;;;23.59;36.35
57763;BME280;43592;42.524;12.052;2023-04-26T12:10:12;96531.72;;;23.66;37.33
57763;BME280;43592;42.524;12.052;2023-04-26T12:12:42;96532.00;;;23.72;40.53
57763;BME280;43592;42.524;12.052;2023-04-26T12:15:09;96530.97;;;23.82;38.88
57763;BME280;43592;42.524;12.052;2023-04-26T12:17:34;96533.47;;;24.06;40.37
57763;BME280;43592;42.524;12.052;2023-04-26T12:20:07;96532.16;;;24.27;40.34
57763;BME280;43592;42.524;12.052;2023-04-26T12:22:33;96525.09;;;24.42;39.38
57763;BME280;43592;42.524;12.052;2023-04-26T12:25:04;96524.69;;;24.44;37.51
57763;BME280;43592;42.524;12.052;2023-04-26T12:27:34;96519.13;;;24.18;33.95
57763;BME280;43592;42.524;12.052;2023-04-26T12:30:00;96526.88;;;24.19;36.19
57763;BME280;43592;42.524;12.052;2023-04-26T12:32:25;96527.25;;;24.34;38.14
57763;BME280;43592;42.524;12.052;2023-04-26T12:34:51;96525.59;;;24.53;40.20
57763;BME280;43592;42.524;12.052;2023-04-26T12:37:16;96524.28;;;24.58;32.57
57763;BME280;43592;42.524;12.052;2023-04-26T12:39:42;96530.00;;;24.63;40.88
57763;BME280;43592;42.524;12.052;2023-04-26T12:42:08;96521.78;;;24.63;41.06
57763;BME280;43592;42.524;12.052;2023-04-26T12:44:34;96529.47;;;24.69;36.77
57763;BME280;43592;42.524;12.052;2023-04-26T12:47:00;96525.00;;;24.75;39.48
57763;BME280;43592;42.524;12.052;2023-04-26T12:49:26;96528.72;;;24.81;38.06
57763;BME280;43592;42.524;12.052;2023-04-26T12:51:53;96522.47;;;24.80;39.83
57763;BME280;43592;42.524;12.052;2023-04-26T12:54:19;96525.63;;;24.79;36.28
57763;BME280;43592;42.524;12.052;2023-04-26T12:56:44;96527.00;;;25.00;41.87
57763;BME280;43592;42.524;12.052;2023-04-26T12:59:10;96519.13;;;25.15;42.24
57763;BME280;43592;42.524;12.052;2023-04-26T13:01:36;96517.16;;;25.15;38.80
57763;BME280;43592;42.524;12.052;2023-04-26T13:04:01;96511.91;;;25.21;37.67